createdAt,value
2023-04-07T00:01:12.708Z,0.22
2023-04-07T00:04:15.810Z,0.22
2023-04-07T00:07:18.813Z,0.21
2023-04-07T00:10:21.838Z,0.21
2023-04-07T00:13:24.677Z,0.22
2023-04-07T00:16:27.778Z,0.22
2023-04-07T00:19:38.132Z,0.22
2023-04-07T00:22:43.299Z,0.23
2023-04-07T00:25:48.319Z,0.22
2023-04-07T00:28:51.259Z,0.20
2023-04-07T00:31:54.688Z,0.19
2023-04-07T00:34:57.574Z,0.19
2023-04-07T00:38:00.406Z,0.19
2023-04-07T00:41:03.214Z,0.20
2023-04-07T00:44:06.042Z,0.20
2023-04-07T00:47:09.013Z,0.21
2023-04-07T00:50:12.034Z,0.22
2023-04-07T00:53:16.437Z,0.22
2023-04-07T00:56:19.844Z,0.22
2023-04-07T00:59:22.915Z,0.24
2023-04-07T01:02:37.560Z,0.25
2023-04-07T01:05:56.755Z,0.25
2023-04-07T01:09:13.918Z,0.27
2023-04-07T01:12:47.520Z,0.27
2023-04-07T01:15:53.124Z,0.28
2023-04-07T01:19:01.894Z,0.29
2023-04-07T01:22:13.404Z,0.29
2023-04-07T01:25:33.223Z,0.29
2023-04-07T01:29:08.888Z,0.29
2023-04-07T01:32:12.804Z,0.29
2023-04-07T01:35:17.052Z,0.29
2023-04-07T01:38:22.702Z,0.30
2023-04-07T01:41:26.940Z,0.30
2023-04-07T01:44:32.933Z,0.30
2023-04-07T01:47:39.386Z,0.32
2023-04-07T01:50:43.458Z,0.33
2023-04-07T01:53:47.989Z,0.32
2023-04-07T01:56:51.572Z,0.33
2023-04-07T01:59:55.700Z,0.35
2023-04-07T02:03:03.984Z,0.33
2023-04-07T02:06:08.844Z,0.31
2023-04-07T02:09:16.221Z,0.32
2023-04-07T02:12:20.873Z,0.31
2023-04-07T02:15:25.698Z,0.30
2023-04-07T02:18:32.548Z,0.30
2023-04-07T02:21:36.620Z,0.29
2023-04-07T02:24:42.967Z,0.30
2023-04-07T02:27:47.131Z,0.32
2023-04-07T02:30:50.257Z,0.30
2023-04-07T02:33:53.305Z,0.31
2023-04-07T02:36:57.429Z,0.31
2023-04-07T02:40:01.110Z,0.31
2023-04-07T02:43:05.959Z,0.30
2023-04-07T02:46:09.612Z,0.30
2023-04-07T02:49:13.237Z,0.29
2023-04-07T02:52:17.473Z,0.29
2023-04-07T02:55:20.492Z,0.29
2023-04-07T02:58:25.596Z,0.29
2023-04-07T03:01:28.799Z,0.30
2023-04-07T03:04:32.469Z,0.30
2023-04-07T03:07:36.108Z,0.30
2023-04-07T03:10:39.281Z,0.29
2023-04-07T03:13:42.535Z,0.28
2023-04-07T03:16:45.847Z,0.28
2023-04-07T03:19:52.104Z,0.28
2023-04-07T03:22:55.562Z,0.28
2023-04-07T03:25:58.711Z,0.30
2023-04-07T03:29:04.484Z,0.29
2023-04-07T03:32:07.692Z,0.29
2023-04-07T03:35:13.211Z,0.28
2023-04-07T03:38:16.815Z,0.28
2023-04-07T03:41:36.895Z,0.27
2023-04-07T03:44:40.976Z,0.28
2023-04-07T03:47:45.433Z,0.29
2023-04-07T03:50:48.510Z,0.30
2023-04-07T03:53:51.849Z,0.30
2023-04-07T03:56:55.325Z,0.30
2023-04-07T03:59:58.453Z,0.30
2023-04-07T04:03:02.315Z,0.32
2023-04-07T04:06:05.993Z,0.33
2023-04-07T04:09:09.149Z,0.33
2023-04-07T04:12:12.852Z,0.35
2023-04-07T04:15:24.728Z,0.35
2023-04-07T04:18:28.666Z,0.36
2023-04-07T04:21:36.859Z,0.38
2023-04-07T04:25:35.555Z,0.39
2023-04-07T04:28:39.089Z,0.41
2023-04-07T04:31:42.243Z,0.42
2023-04-07T04:34:45.834Z,0.44
2023-04-07T04:37:48.988Z,0.46
2023-04-07T04:40:52.176Z,0.47
2023-04-07T04:43:55.338Z,0.49
2023-04-07T04:46:58.518Z,0.50
2023-04-07T04:50:01.609Z,0.52
2023-04-07T04:53:04.711Z,0.53
2023-04-07T04:56:09.363Z,0.55
2023-04-07T04:59:12.547Z,0.58
2023-04-07T05:02:16.504Z,0.60
2023-04-07T05:05:20.271Z,0.63
2023-04-07T05:08:23.564Z,0.67
2023-04-07T05:11:26.798Z,0.69
2023-04-07T05:14:29.761Z,0.70
2023-04-07T05:17:33.435Z,0.71
2023-04-07T05:20:36.727Z,0.73
2023-04-07T05:23:39.704Z,0.75
2023-04-07T05:26:42.588Z,0.80
2023-04-07T05:29:45.870Z,0.83
2023-04-07T05:32:48.717Z,0.86
2023-04-07T05:35:51.752Z,0.89
2023-04-07T05:38:54.774Z,0.91
2023-04-07T05:41:58.322Z,0.97
2023-04-07T05:45:01.312Z,1.03
2023-04-07T05:48:04.644Z,1.12
2023-04-07T05:51:07.590Z,1.22
2023-04-07T05:54:11.270Z,1.31
2023-04-07T05:57:14.254Z,1.40
2023-04-07T06:00:17.432Z,1.49
2023-04-07T06:03:20.627Z,1.60
2023-04-07T06:06:23.639Z,1.74
2023-04-07T06:09:26.764Z,1.93
2023-04-07T06:12:29.619Z,2.16
2023-04-07T06:15:32.594Z,2.41
2023-04-07T06:18:35.676Z,2.67
2023-04-07T06:21:40.125Z,2.96
2023-04-07T06:24:43.120Z,3.20
2023-04-07T06:27:46.242Z,3.41
2023-04-07T06:30:49.324Z,3.55
2023-04-07T06:33:52.167Z,3.66
2023-04-07T06:36:57.410Z,3.78
2023-04-07T06:40:01.036Z,3.93
2023-04-07T06:43:04.296Z,4.10
2023-04-07T06:46:07.084Z,4.24
2023-04-07T06:49:09.968Z,4.39
2023-04-07T06:52:12.857Z,4.52
2023-04-07T06:55:15.837Z,4.65
2023-04-07T06:58:18.671Z,4.73
2023-04-07T07:01:22.581Z,4.74
2023-04-07T07:04:25.627Z,4.68
2023-04-07T07:07:28.673Z,4.52
2023-04-07T07:10:31.486Z,4.37
2023-04-07T07:13:34.421Z,4.22
2023-04-07T07:16:37.425Z,4.07
2023-04-07T07:19:40.255Z,3.98
2023-04-07T07:22:43.194Z,3.98
2023-04-07T07:25:46.017Z,4.00
2023-04-07T07:28:48.884Z,4.02
2023-04-07T07:31:52.303Z,3.99
2023-04-07T07:34:55.881Z,3.98
2023-04-07T07:37:58.978Z,4.00
2023-04-07T07:41:02.578Z,4.05
2023-04-07T07:44:05.474Z,4.12
2023-04-07T07:47:08.501Z,4.18
2023-04-07T07:50:11.452Z,4.28
2023-04-07T07:53:14.323Z,4.35
2023-04-07T07:56:17.275Z,4.32
2023-04-07T07:59:20.135Z,4.40
2023-04-07T08:02:23.187Z,4.46
2023-04-07T08:05:26.445Z,4.46
2023-04-07T08:08:29.354Z,4.43
2023-04-07T08:11:32.187Z,4.35
2023-04-07T08:14:35.173Z,4.32
2023-04-07T08:17:38.504Z,4.37
2023-04-07T08:20:41.770Z,4.44
2023-04-07T08:23:44.774Z,4.61
2023-04-07T08:26:47.606Z,4.75
2023-04-07T08:30:00.468Z,4.90
2023-04-07T08:33:04.366Z,5.04
2023-04-07T08:36:07.573Z,5.16
2023-04-07T08:39:10.671Z,5.15
2023-04-07T08:42:15.021Z,5.08
2023-04-07T08:45:19.268Z,5.09
2023-04-07T08:48:25.867Z,5.19
2023-04-07T08:51:31.932Z,5.30
2023-04-07T08:54:35.305Z,5.43
2023-04-07T08:57:38.625Z,5.67
2023-04-07T09:00:45.979Z,5.88
2023-04-07T09:03:50.205Z,5.97
2023-04-07T09:06:53.370Z,5.99
2023-04-07T09:09:57.257Z,6.05
2023-04-07T09:13:00.205Z,5.93
2023-04-07T09:16:03.479Z,5.72
2023-04-07T09:19:07.375Z,5.63
2023-04-07T09:22:12.718Z,5.54
2023-04-07T09:25:17.032Z,5.37
2023-04-07T09:28:19.891Z,5.19
2023-04-07T09:31:28.344Z,5.09
2023-04-07T09:34:36.219Z,4.90
2023-04-07T09:37:39.194Z,4.68
2023-04-07T09:40:42.453Z,4.42
2023-04-07T09:43:47.064Z,4.27
2023-04-07T09:46:56.495Z,4.14
2023-04-07T09:50:06.644Z,4.02
2023-04-07T09:53:09.880Z,3.94
2023-04-07T09:56:13.950Z,3.91
2023-04-07T09:59:17.586Z,3.88
2023-04-07T10:02:23.111Z,3.85
2023-04-07T10:05:26.487Z,3.83
2023-04-07T10:08:32.446Z,3.77
2023-04-07T10:11:37.698Z,3.69
2023-04-07T10:14:40.962Z,3.54
2023-04-07T10:17:48.755Z,3.38
2023-04-07T10:20:54.633Z,3.27
2023-04-07T10:24:23.449Z,3.22
2023-04-07T10:27:35.942Z,3.24
2023-04-07T10:30:39.974Z,3.31
2023-04-07T10:33:53.187Z,3.37
2023-04-07T10:37:13.469Z,3.36
2023-04-07T10:40:19.639Z,3.25
2023-04-07T10:43:42.281Z,3.27
2023-04-07T10:46:45.300Z,3.31
2023-04-07T10:50:13.188Z,3.34
2023-04-07T10:53:16.527Z,3.40
2023-04-07T10:56:19.457Z,3.44
2023-04-07T10:59:27.897Z,3.42
2023-04-07T11:02:32.549Z,3.43
2023-04-07T11:05:38.911Z,3.48
2023-04-07T11:08:48.230Z,3.53
2023-04-07T11:11:52.631Z,3.60
2023-04-07T11:14:56.693Z,3.60
2023-04-07T11:18:17.762Z,3.53
2023-04-07T11:21:20.629Z,3.42
2023-04-07T11:24:39.479Z,3.36
2023-04-07T11:27:44.782Z,3.36
2023-04-07T11:30:52.863Z,3.35
2023-04-07T11:33:59.778Z,3.35
2023-04-07T11:37:27.495Z,3.36
2023-04-07T11:40:37.315Z,3.39
2023-04-07T11:43:42.291Z,3.38
2023-04-07T11:47:00.609Z,3.33
2023-04-07T11:50:03.735Z,3.34
2023-04-07T11:53:06.853Z,3.36
2023-04-07T11:56:19.064Z,3.36
2023-04-07T11:59:23.991Z,3.35
2023-04-07T12:02:38.005Z,3.36
2023-04-07T12:05:48.048Z,3.41
2023-04-07T12:08:51.000Z,3.44
2023-04-07T12:11:54.059Z,3.48
2023-04-07T12:14:57.052Z,3.53
2023-04-07T12:18:01.140Z,3.54
2023-04-07T12:21:04.956Z,3.60
2023-04-07T12:24:07.864Z,3.64
2023-04-07T12:27:11.171Z,3.65
2023-04-07T12:30:14.156Z,3.62
2023-04-07T12:33:17.161Z,3.55
2023-04-07T12:36:20.115Z,3.51
2023-04-07T12:39:22.993Z,3.44
2023-04-07T12:42:26.419Z,3.39
2023-04-07T12:45:31.437Z,3.35
2023-04-07T12:48:34.779Z,3.31
2023-04-07T12:51:40.130Z,3.30
2023-04-07T12:54:44.548Z,3.30
2023-04-07T12:57:47.582Z,3.30
2023-04-07T13:00:50.622Z,3.32
2023-04-07T13:03:54.009Z,3.37
2023-04-07T13:06:57.269Z,3.44
2023-04-07T13:10:00.183Z,3.48
2023-04-07T13:13:03.104Z,3.50
2023-04-07T13:16:06.092Z,3.49
2023-04-07T13:19:09.649Z,3.51
2023-04-07T13:22:18.281Z,3.54
2023-04-07T13:25:24.485Z,3.60
2023-04-07T13:28:28.138Z,3.66
2023-04-07T13:31:31.074Z,3.71
2023-04-07T13:34:35.859Z,3.74
2023-04-07T13:37:38.768Z,3.75
2023-04-07T13:40:41.970Z,3.73
2023-04-07T13:43:44.934Z,3.68
2023-04-07T13:46:48.189Z,3.66
2023-04-07T13:49:54.684Z,3.67
2023-04-07T13:52:57.714Z,3.68
2023-04-07T13:56:01.241Z,3.68
2023-04-07T13:59:06.147Z,3.70
2023-04-07T14:02:09.179Z,3.75
2023-04-07T14:05:12.337Z,3.76
2023-04-07T14:08:15.505Z,3.75
2023-04-07T14:11:38.292Z,3.71
2023-04-07T14:14:41.314Z,3.63
2023-04-07T14:17:44.141Z,3.57
2023-04-07T14:20:47.193Z,3.53
2023-04-07T14:23:50.250Z,3.48
2023-04-07T14:26:54.768Z,3.45
2023-04-07T14:29:59.617Z,3.37
2023-04-07T14:33:04.937Z,3.30
2023-04-07T14:36:08.197Z,3.26
2023-04-07T14:39:12.602Z,3.24
2023-04-07T14:42:16.350Z,3.21
2023-04-07T14:45:19.318Z,3.16
2023-04-07T14:48:22.316Z,3.11
2023-04-07T14:51:25.207Z,3.05
2023-04-07T14:54:28.477Z,2.98
2023-04-07T14:57:31.527Z,2.93
2023-04-07T15:00:35.107Z,2.87
2023-04-07T15:03:38.775Z,2.83
2023-04-07T15:06:43.044Z,2.80
2023-04-07T15:09:48.411Z,2.77
2023-04-07T15:12:51.269Z,2.74
2023-04-07T15:15:54.265Z,2.74
2023-04-07T15:18:57.148Z,2.73
2023-04-07T15:21:59.992Z,2.71
2023-04-07T15:25:05.818Z,2.69
2023-04-07T15:28:08.880Z,2.70
2023-04-07T15:31:12.077Z,2.71
2023-04-07T15:34:14.846Z,2.73
2023-04-07T15:37:18.905Z,2.72
2023-04-07T15:40:21.914Z,2.70
2023-04-07T15:43:25.058Z,2.68
2023-04-07T15:46:28.079Z,2.69
2023-04-07T15:49:31.019Z,2.70
2023-04-07T15:52:33.952Z,2.69
2023-04-07T15:55:39.556Z,2.69
2023-04-07T15:58:45.238Z,2.69
2023-04-07T16:01:48.644Z,2.68
2023-04-07T16:04:52.331Z,2.65
2023-04-07T16:07:55.539Z,2.61
2023-04-07T16:10:58.394Z,2.60
2023-04-07T16:14:01.399Z,2.57
2023-04-07T16:17:04.230Z,2.56
2023-04-07T16:20:14.898Z,2.55
2023-04-07T16:23:17.864Z,2.54
2023-04-07T16:26:21.343Z,2.54
2023-04-07T16:29:24.164Z,2.53
2023-04-07T16:32:27.116Z,2.52
2023-04-07T16:35:32.006Z,2.50
2023-04-07T16:38:35.132Z,2.48
2023-04-07T16:41:38.052Z,2.48
2023-04-07T16:44:41.235Z,2.47
2023-04-07T16:47:49.068Z,2.47
2023-04-07T16:50:53.258Z,2.47
2023-04-07T16:53:56.155Z,2.47
2023-04-07T16:56:59.516Z,2.46
2023-04-07T17:00:02.750Z,2.46
2023-04-07T17:03:06.212Z,2.46
2023-04-07T17:06:09.518Z,2.41
2023-04-07T17:09:19.261Z,2.37
2023-04-07T17:13:23.389Z,2.30
2023-04-07T17:16:15.637Z,2.24
2023-04-07T17:19:19.868Z,2.21
2023-04-07T17:22:23.576Z,2.16
2023-04-07T17:25:27.973Z,2.13
2023-04-07T17:28:31.743Z,2.11
2023-04-07T17:31:37.884Z,2.10
2023-04-07T17:34:41.189Z,2.09
2023-04-07T17:37:44.413Z,2.09
2023-04-07T17:40:47.729Z,2.08
2023-04-07T17:43:51.159Z,2.07
2023-04-07T17:46:54.891Z,2.07
2023-04-07T17:49:58.971Z,2.07
2023-04-07T17:53:02.094Z,2.06
2023-04-07T17:56:06.012Z,2.07
2023-04-07T17:59:11.058Z,2.05
2023-04-07T18:02:14.444Z,2.05
2023-04-07T18:05:18.126Z,2.06
2023-04-07T18:08:21.396Z,2.06
2023-04-07T18:11:24.762Z,2.07
2023-04-07T18:14:29.117Z,2.08
2023-04-07T18:17:32.545Z,2.10
2023-04-07T18:20:36.454Z,2.11
2023-04-07T18:23:39.786Z,2.12
2023-04-07T18:26:46.566Z,2.13
2023-04-07T18:29:50.667Z,2.15
2023-04-07T18:32:56.970Z,2.16
2023-04-07T18:36:04.236Z,2.17
2023-04-07T18:39:09.097Z,2.18
2023-04-07T18:42:12.723Z,2.19
2023-04-07T18:45:16.368Z,2.19
2023-04-07T18:48:20.342Z,2.20
2023-04-07T18:51:23.490Z,2.20
2023-04-07T18:54:27.912Z,2.21
2023-04-07T18:57:30.864Z,2.22
2023-04-07T19:00:34.152Z,2.22
2023-04-07T19:03:37.380Z,2.22
2023-04-07T19:06:40.715Z,2.23
2023-04-07T19:09:44.111Z,2.24
2023-04-07T19:12:47.242Z,2.24
2023-04-07T19:15:51.709Z,2.24
2023-04-07T19:18:55.580Z,2.24
2023-04-07T19:21:58.793Z,2.23
2023-04-07T19:25:01.913Z,2.23
2023-04-07T19:28:06.102Z,2.22
2023-04-07T19:31:09.520Z,2.22
2023-04-07T19:34:12.397Z,2.19
2023-04-07T19:37:16.325Z,2.18
2023-04-07T19:40:19.664Z,2.16
2023-04-07T19:43:22.567Z,2.16
2023-04-07T19:46:25.786Z,2.14
2023-04-07T19:49:28.847Z,2.13
2023-04-07T19:52:33.229Z,2.12
2023-04-07T19:55:37.290Z,2.12
2023-04-07T19:58:40.119Z,2.12
2023-04-07T20:01:43.193Z,2.11
2023-04-07T20:04:46.431Z,2.10
2023-04-07T20:07:49.311Z,2.10
2023-04-07T20:10:52.875Z,2.11
2023-04-07T20:13:56.113Z,2.11
2023-04-07T20:16:59.128Z,2.11
2023-04-07T20:20:02.031Z,2.11
2023-04-07T20:23:04.934Z,2.10
2023-04-07T20:26:09.743Z,2.10
2023-04-07T20:29:12.645Z,2.09
2023-04-07T20:32:15.698Z,2.09
2023-04-07T20:35:18.669Z,2.09
2023-04-07T20:38:21.695Z,2.09
2023-04-07T20:41:24.499Z,2.09
2023-04-07T20:44:35.274Z,2.10
2023-04-07T20:47:42.418Z,2.10
2023-04-07T20:50:45.327Z,2.08
2023-04-07T20:53:48.480Z,2.09
2023-04-07T20:56:51.416Z,2.10
2023-04-07T20:59:54.303Z,2.11
2023-04-07T21:02:57.385Z,2.12
2023-04-07T21:06:00.342Z,2.14
2023-04-07T21:09:05.705Z,2.15
2023-04-07T21:12:08.711Z,2.16
2023-04-07T21:15:11.978Z,2.19
2023-04-07T21:18:15.083Z,2.20
2023-04-07T21:21:17.988Z,2.22
2023-04-07T21:24:21.844Z,2.23
2023-04-07T21:27:24.743Z,2.23
2023-04-07T21:30:27.581Z,2.24
2023-04-07T21:33:30.616Z,2.25
2023-04-07T21:36:33.894Z,2.26
2023-04-07T21:39:36.708Z,2.26
2023-04-07T21:42:39.585Z,2.27
2023-04-07T21:45:42.616Z,2.27
2023-04-07T21:48:45.777Z,2.27
2023-04-07T21:51:49.361Z,2.28
2023-04-07T21:54:52.699Z,2.27
2023-04-07T21:57:55.592Z,2.28
2023-04-07T22:00:58.431Z,2.27
2023-04-07T22:04:01.458Z,2.28
2023-04-07T22:07:05.505Z,2.27
2023-04-07T22:10:09.067Z,2.27
2023-04-07T22:13:11.889Z,2.27
2023-04-07T22:16:14.885Z,2.27
2023-04-07T22:19:18.460Z,2.27
2023-04-07T22:22:21.385Z,2.27
2023-04-07T22:25:24.551Z,2.28
2023-04-07T22:28:27.438Z,2.28
2023-04-07T22:31:30.465Z,2.29
2023-04-07T22:34:34.633Z,2.30
2023-04-07T22:37:37.805Z,2.31
2023-04-07T22:40:42.067Z,2.31
2023-04-07T22:43:45.071Z,2.32
2023-04-07T22:46:49.043Z,2.32
2023-04-07T22:49:52.022Z,2.32
2023-04-07T22:52:55.454Z,2.33
2023-04-07T22:55:58.549Z,2.34
2023-04-07T22:59:05.812Z,2.34
2023-04-07T23:02:09.066Z,2.34
2023-04-07T23:05:12.435Z,2.35
2023-04-07T23:08:15.640Z,2.34
2023-04-07T23:11:22.495Z,2.34
2023-04-07T23:14:25.841Z,2.35
2023-04-07T23:17:29.894Z,2.34
2023-04-07T23:20:33.117Z,2.33
2023-04-07T23:23:37.343Z,2.30
2023-04-07T23:26:40.368Z,2.29
2023-04-07T23:29:43.375Z,2.27
2023-04-07T23:32:46.966Z,2.27
2023-04-07T23:35:50.783Z,2.27
2023-04-07T23:38:56.350Z,2.25
2023-04-07T23:41:59.383Z,2.24
2023-04-07T23:45:02.554Z,2.23
2023-04-07T23:48:06.292Z,2.23
2023-04-07T23:51:09.384Z,2.23
2023-04-07T23:54:12.532Z,2.24
2023-04-07T23:57:15.631Z,2.24
